Pagrindinis puslapis
METAR-TAF:

METAR-TAF

Oro uostai :

Kemis, Suomija

platuma: 65-47N, ilguma: 024-35E, Aukštis: 15 m

Dabartinis oras

Ataskaita buvo paskelbta 1 valandą ir 3 minutes, ne 12:50 UTC
Vėjas 10 kt iš Pietvakarių
Temperatūra 19°C
Drėgmė 43%
Slėgis 1025 hPa
Matomumas 10 km arba daugiau
nėra debesų žemiau 1500 m ir nėra kamuolinių lietaus debesų

METAR: EFKE 011250Z AUTO 23010KT CAVOK 19/06 Q1025

Laikas: 16:53 (13:53 UTC)


TAF: trūkstamas

Orai ataskaitas ir orų prognozės (METAR, TAF).

turimą stotys yra geltonos ir raudonos taškus žemėlapyje.

Perkelti pele per norėdami pamatyti stoties vardą.

Tada spustelėkite, norėdami matyti oro stebėjimo ir prognozės.

Norėdami pakeisti žemėlapį: spustelėkite ant žalios mygtukų su juodo kryžiaus žemyn,; žalią mygtuką su brūkšneliu, jei norite nutolinti; arba žalių rodyklių gretimoms žemėlapius.


METAR-TAF: